createdAt,value
2023-04-21T00:00:31.740Z,8.92
2023-04-21T00:01:34.451Z,8.90
2023-04-21T00:02:40.070Z,8.89
2023-04-21T00:03:42.355Z,8.87
2023-04-21T00:04:47.277Z,8.89
2023-04-21T00:05:50.108Z,8.78
2023-04-21T00:06:53.396Z,8.75
2023-04-21T00:07:55.261Z,8.76
2023-04-21T00:08:57.084Z,8.77
2023-04-21T00:09:58.914Z,8.80
2023-04-21T00:11:00.745Z,8.81
2023-04-21T00:12:02.500Z,8.81
2023-04-21T00:13:04.302Z,8.79
2023-04-21T00:14:06.135Z,8.76
2023-04-21T00:15:08.251Z,8.71
2023-04-21T00:16:10.196Z,8.68
2023-04-21T00:17:11.969Z,8.63
2023-04-21T00:18:14.449Z,8.64
2023-04-21T00:19:16.285Z,8.66
2023-04-21T00:20:18.232Z,8.68
2023-04-21T00:21:20.104Z,8.68
2023-04-21T00:22:22.421Z,8.66
2023-04-21T00:23:25.128Z,8.64
2023-04-21T00:24:27.101Z,8.66
2023-04-21T00:25:28.917Z,8.67
2023-04-21T00:26:30.703Z,8.67
2023-04-21T00:27:32.502Z,8.68
2023-04-21T00:28:34.297Z,8.68
2023-04-21T00:29:36.208Z,8.67
2023-04-21T00:30:37.942Z,8.63
2023-04-21T00:31:39.761Z,8.51
2023-04-21T00:32:41.631Z,8.49
2023-04-21T00:33:43.529Z,8.50
2023-04-21T00:34:45.485Z,8.49
2023-04-21T00:35:47.309Z,8.51
2023-04-21T00:36:49.205Z,8.52
2023-04-21T00:37:51.192Z,8.46
2023-04-21T00:38:52.990Z,8.40
2023-04-21T00:39:54.745Z,8.37
2023-04-21T00:40:56.655Z,8.33
2023-04-21T00:41:58.478Z,8.27
2023-04-21T00:43:00.276Z,8.24
2023-04-21T00:44:09.784Z,8.20
2023-04-21T00:45:11.828Z,8.24
2023-04-21T00:46:13.631Z,8.27
2023-04-21T00:47:15.631Z,8.32
2023-04-21T00:48:17.662Z,8.36
2023-04-21T00:49:19.677Z,8.38
2023-04-21T00:50:21.614Z,8.39
2023-04-21T00:51:23.462Z,8.35
2023-04-21T00:52:25.545Z,8.35
2023-04-21T00:53:27.262Z,8.36
2023-04-21T00:54:29.131Z,8.37
2023-04-21T00:55:31.516Z,8.30
2023-04-21T00:56:34.015Z,8.29
2023-04-21T00:57:36.710Z,8.31
2023-04-21T00:58:40.633Z,8.33
2023-04-21T00:59:43.777Z,8.34
2023-04-21T01:00:45.723Z,8.35
2023-04-21T01:01:47.500Z,8.36
2023-04-21T01:02:49.603Z,8.37
2023-04-21T01:03:52.100Z,8.33
2023-04-21T01:04:54.216Z,8.26
2023-04-21T01:05:56.692Z,8.21
2023-04-21T01:06:59.203Z,8.06
2023-04-21T01:08:02.169Z,8.03
2023-04-21T01:09:06.928Z,8.05
2023-04-21T01:10:10.233Z,8.07
2023-04-21T01:11:12.666Z,8.06
2023-04-21T01:12:14.496Z,8.04
2023-04-21T01:13:19.645Z,8.07
2023-04-21T01:14:21.395Z,8.10
2023-04-21T01:15:23.223Z,8.12
2023-04-21T01:16:25.159Z,8.09
2023-04-21T01:17:27.263Z,8.03
2023-04-21T01:18:29.516Z,8.02
2023-04-21T01:19:33.527Z,8.03
2023-04-21T01:20:36.504Z,7.98
2023-04-21T01:21:42.079Z,7.93
2023-04-21T01:22:45.482Z,7.94
2023-04-21T01:23:47.385Z,7.93
2023-04-21T01:24:49.840Z,7.92
2023-04-21T01:25:52.239Z,7.93
2023-04-21T01:26:54.068Z,7.91
2023-04-21T01:27:55.832Z,7.85
2023-04-21T01:28:57.864Z,7.86
2023-04-21T01:29:59.738Z,7.89
2023-04-21T01:31:02.292Z,7.91
2023-04-21T01:32:05.660Z,7.94
2023-04-21T01:33:07.642Z,7.96
2023-04-21T01:34:10.947Z,7.96
2023-04-21T01:35:12.785Z,7.97
2023-04-21T01:36:14.659Z,8.00
2023-04-21T01:37:17.622Z,8.01
2023-04-21T01:38:19.779Z,8.01
2023-04-21T01:39:21.712Z,8.01
2023-04-21T01:40:23.497Z,8.02
2023-04-21T01:41:25.286Z,8.04
2023-04-21T01:42:28.490Z,8.01
2023-04-21T01:43:30.355Z,7.95
2023-04-21T01:44:32.226Z,7.94
2023-04-21T01:45:34.168Z,7.92
2023-04-21T01:46:36.023Z,7.92
2023-04-21T01:47:37.937Z,7.95
2023-04-21T01:48:39.695Z,7.92
2023-04-21T01:49:41.558Z,7.93
2023-04-21T01:50:43.373Z,7.94
2023-04-21T01:51:45.267Z,7.95
2023-04-21T01:52:47.043Z,7.92
2023-04-21T01:53:48.879Z,7.91
2023-04-21T01:54:50.911Z,7.92
2023-04-21T01:55:52.845Z,7.92
2023-04-21T01:56:54.732Z,7.94
2023-04-21T01:58:00.027Z,7.95
2023-04-21T01:59:01.884Z,7.95
2023-04-21T02:00:04.566Z,7.93
2023-04-21T02:01:06.346Z,7.90
2023-04-21T02:02:08.454Z,7.86
2023-04-21T02:03:10.419Z,7.84
2023-04-21T02:04:12.540Z,7.79
2023-04-21T02:05:14.393Z,7.79
2023-04-21T02:06:18.098Z,7.77
2023-04-21T02:07:21.266Z,7.71
2023-04-21T02:08:23.070Z,7.71
2023-04-21T02:09:24.959Z,7.73
2023-04-21T02:10:26.788Z,7.70
2023-04-21T02:11:28.554Z,7.69
2023-04-21T02:12:30.467Z,7.64
2023-04-21T02:13:32.208Z,7.62
2023-04-21T02:14:34.044Z,7.61
2023-04-21T02:15:37.324Z,7.63
2023-04-21T02:16:39.159Z,7.60
2023-04-21T02:17:43.144Z,7.59
2023-04-21T02:18:45.040Z,7.58
2023-04-21T02:19:48.162Z,7.58
2023-04-21T02:20:50.121Z,7.60
2023-04-21T02:21:51.966Z,7.62
2023-04-21T02:22:53.811Z,7.64
2023-04-21T02:23:55.692Z,7.63
2023-04-21T02:24:57.540Z,7.63
2023-04-21T02:25:59.392Z,7.66
2023-04-21T02:27:03.395Z,7.67
2023-04-21T02:28:05.226Z,7.67
2023-04-21T02:29:07.064Z,7.68
2023-04-21T02:30:09.225Z,7.66
2023-04-21T02:31:11.632Z,7.67
2023-04-21T02:32:25.009Z,7.59
2023-04-21T02:33:29.465Z,7.50
2023-04-21T02:34:31.247Z,7.49
2023-04-21T02:35:34.096Z,7.50
2023-04-21T02:36:35.940Z,7.45
2023-04-21T02:37:37.880Z,7.43
2023-04-21T02:38:40.264Z,7.45
2023-04-21T02:39:44.015Z,7.48
2023-04-21T02:40:45.849Z,7.37
2023-04-21T02:41:47.777Z,7.29
2023-04-21T02:42:49.656Z,7.22
2023-04-21T02:43:51.517Z,7.21
2023-04-21T02:44:53.369Z,7.27
2023-04-21T02:45:55.359Z,7.29
2023-04-21T02:46:57.167Z,7.34
2023-04-21T02:47:59.786Z,7.32
2023-04-21T02:49:01.703Z,7.31
2023-04-21T02:50:04.394Z,7.32
2023-04-21T02:51:06.203Z,7.35
2023-04-21T02:52:08.023Z,7.38
2023-04-21T02:53:09.754Z,7.40
2023-04-21T02:54:11.615Z,7.41
2023-04-21T02:55:13.384Z,7.40
2023-04-21T02:56:15.186Z,7.39
2023-04-21T02:57:17.313Z,7.31
2023-04-21T02:58:19.156Z,7.26
2023-04-21T02:59:21.447Z,7.18
2023-04-21T03:00:23.415Z,7.12
2023-04-21T03:01:25.279Z,7.10
2023-04-21T03:02:27.170Z,7.11
2023-04-21T03:03:29.507Z,7.11
2023-04-21T03:04:33.017Z,7.10
2023-04-21T03:05:34.896Z,7.14
2023-04-21T03:06:37.147Z,7.11
2023-04-21T03:07:39.146Z,6.98
2023-04-21T03:08:41.074Z,6.91
2023-04-21T03:09:42.941Z,6.91
2023-04-21T03:10:44.781Z,6.95
2023-04-21T03:11:46.564Z,6.90
2023-04-21T03:12:48.338Z,6.80
2023-04-21T03:13:50.138Z,6.67
2023-04-21T03:14:51.956Z,6.58
2023-04-21T03:15:53.808Z,6.59
2023-04-21T03:16:55.737Z,6.63
2023-04-21T03:17:57.714Z,6.67
2023-04-21T03:18:59.525Z,6.65
2023-04-21T03:20:01.470Z,6.70
2023-04-21T03:21:04.684Z,6.76
2023-04-21T03:22:06.814Z,6.83
2023-04-21T03:23:08.632Z,6.90
2023-04-21T03:24:10.394Z,6.96
2023-04-21T03:25:12.306Z,7.01
2023-04-21T03:26:14.098Z,7.01
2023-04-21T03:27:15.900Z,7.01
2023-04-21T03:28:17.986Z,6.97
2023-04-21T03:29:20.019Z,7.01
2023-04-21T03:30:22.606Z,7.03
2023-04-21T03:31:24.490Z,7.01
2023-04-21T03:32:26.316Z,7.02
2023-04-21T03:33:28.228Z,6.98
2023-04-21T03:34:30.026Z,6.98
2023-04-21T03:35:31.859Z,7.01
2023-04-21T03:36:33.680Z,7.04
2023-04-21T03:37:35.458Z,7.01
2023-04-21T03:38:37.289Z,7.04
2023-04-21T03:39:39.102Z,7.07
2023-04-21T03:40:41.311Z,7.03
2023-04-21T03:41:43.074Z,6.97
2023-04-21T03:42:44.861Z,6.99
2023-04-21T03:43:46.654Z,7.02
2023-04-21T03:44:48.495Z,7.05
2023-04-21T03:45:50.503Z,7.05
2023-04-21T03:46:55.651Z,7.06
2023-04-21T03:47:57.581Z,7.05
2023-04-21T03:49:00.216Z,7.07
2023-04-21T03:50:06.343Z,7.07
2023-04-21T03:51:08.120Z,7.05
2023-04-21T03:52:09.929Z,7.06
2023-04-21T03:53:12.585Z,7.06
2023-04-21T03:54:14.361Z,7.08
2023-04-21T03:55:16.167Z,7.10
2023-04-21T03:56:18.026Z,7.10
2023-04-21T03:57:19.888Z,7.11
2023-04-21T03:58:21.718Z,7.12
2023-04-21T03:59:23.482Z,7.13
2023-04-21T04:00:25.317Z,7.13
2023-04-21T04:01:27.124Z,7.14
2023-04-21T04:02:29.713Z,7.14
2023-04-21T04:03:31.733Z,7.13
2023-04-21T04:04:33.742Z,7.12
2023-04-21T04:05:38.668Z,7.08
2023-04-21T04:06:41.377Z,7.06
2023-04-21T04:07:44.611Z,7.06
2023-04-21T04:08:46.719Z,7.05
2023-04-21T04:09:48.516Z,7.06
2023-04-21T04:10:50.349Z,7.04
2023-04-21T04:11:52.241Z,7.02
2023-04-21T04:12:55.566Z,6.95
2023-04-21T04:13:57.305Z,6.89
2023-04-21T04:14:59.221Z,6.89
2023-04-21T04:16:01.544Z,6.90
2023-04-21T04:17:03.579Z,6.91
2023-04-21T04:18:05.547Z,6.91
2023-04-21T04:19:07.491Z,6.93
2023-04-21T04:20:10.688Z,6.92
2023-04-21T04:21:12.444Z,6.93
2023-04-21T04:22:14.310Z,6.90
2023-04-21T04:23:16.390Z,6.92
2023-04-21T04:24:18.133Z,6.94
2023-04-21T04:25:19.881Z,6.99
2023-04-21T04:26:24.952Z,7.01
2023-04-21T04:27:27.103Z,7.01
2023-04-21T04:28:29.456Z,7.02
2023-04-21T04:29:32.357Z,7.03
2023-04-21T04:30:35.532Z,7.04
2023-04-21T04:31:38.059Z,7.06
2023-04-21T04:32:39.991Z,7.04
2023-04-21T04:33:43.098Z,7.02
2023-04-21T04:34:44.882Z,6.99
2023-04-21T04:35:47.884Z,7.00
2023-04-21T04:36:50.530Z,6.99
2023-04-21T04:37:52.471Z,6.99
2023-04-21T04:38:54.336Z,7.01
2023-04-21T04:39:56.853Z,7.03
2023-04-21T04:40:59.218Z,7.03
2023-04-21T04:42:01.699Z,7.05
2023-04-21T04:43:03.795Z,7.01
2023-04-21T04:44:06.428Z,6.95
2023-04-21T04:45:09.522Z,6.92
2023-04-21T04:46:13.310Z,6.74
2023-04-21T04:47:15.566Z,6.59
2023-04-21T04:48:18.556Z,6.59
2023-04-21T04:49:21.694Z,6.52
2023-04-21T04:50:24.838Z,6.52
2023-04-21T04:51:26.666Z,6.41
2023-04-21T04:52:28.576Z,6.31
2023-04-21T04:53:30.436Z,6.27
2023-04-21T04:54:32.268Z,6.27
2023-04-21T04:55:34.082Z,6.34
2023-04-21T04:56:35.941Z,6.36
2023-04-21T04:57:37.761Z,6.43
2023-04-21T04:58:39.623Z,6.46
2023-04-21T04:59:41.396Z,6.51
2023-04-21T05:00:43.215Z,6.56
2023-04-21T05:01:45.197Z,6.60
2023-04-21T05:02:47.303Z,6.61
2023-04-21T05:03:49.457Z,6.64
2023-04-21T05:04:51.433Z,6.69
2023-04-21T05:05:54.435Z,6.73
2023-04-21T05:06:56.288Z,6.75
2023-04-21T05:07:58.992Z,6.77
2023-04-21T05:09:00.804Z,6.79
2023-04-21T05:10:04.813Z,6.85
2023-04-21T05:11:07.058Z,6.92
2023-04-21T05:12:08.855Z,6.93
2023-04-21T05:13:10.816Z,6.96
2023-04-21T05:14:12.648Z,6.99
2023-04-21T05:15:14.400Z,7.03
2023-04-21T05:16:16.376Z,7.03
2023-04-21T05:17:18.286Z,7.00
2023-04-21T05:18:20.077Z,7.05
2023-04-21T05:19:21.892Z,7.02
2023-04-21T05:20:23.818Z,7.05
2023-04-21T05:21:28.812Z,7.06
2023-04-21T05:22:30.610Z,7.06
2023-04-21T05:23:32.453Z,7.04
2023-04-21T05:24:34.608Z,7.10
2023-04-21T05:25:38.742Z,7.12
2023-04-21T05:26:40.586Z,7.18
2023-04-21T05:27:43.086Z,7.21
2023-04-21T05:28:44.951Z,7.25
2023-04-21T05:29:47.649Z,7.26
2023-04-21T05:30:49.522Z,7.26
2023-04-21T05:31:51.338Z,7.30
2023-04-21T05:32:53.232Z,7.34
2023-04-21T05:33:55.040Z,7.37
2023-04-21T05:34:56.948Z,7.39
2023-04-21T05:35:58.755Z,7.39
2023-04-21T05:37:00.629Z,7.41
2023-04-21T05:38:02.462Z,7.46
2023-04-21T05:39:04.297Z,7.49
2023-04-21T05:40:06.441Z,7.52
2023-04-21T05:41:08.804Z,7.52
2023-04-21T05:42:11.485Z,7.52
2023-04-21T05:43:14.609Z,7.49
2023-04-21T05:44:19.437Z,7.51
2023-04-21T05:45:21.414Z,7.54
2023-04-21T05:46:23.241Z,7.56
2023-04-21T05:47:25.080Z,7.53
2023-04-21T05:48:27.084Z,7.49
2023-04-21T05:49:28.966Z,7.48
2023-04-21T05:50:34.251Z,7.51
2023-04-21T05:51:36.117Z,7.55
2023-04-21T05:52:38.435Z,7.54
2023-04-21T05:53:40.585Z,7.55
2023-04-21T05:54:42.980Z,7.59
2023-04-21T05:55:44.711Z,7.61
2023-04-21T05:56:47.565Z,7.66
2023-04-21T05:57:49.296Z,7.70
2023-04-21T05:58:51.227Z,7.74
2023-04-21T05:59:53.009Z,7.77
2023-04-21T06:00:54.683Z,7.78
2023-04-21T06:01:56.422Z,7.81
2023-04-21T06:02:58.443Z,7.84
2023-04-21T06:04:01.722Z,7.82
2023-04-21T06:05:04.208Z,7.84
2023-04-21T06:06:06.753Z,7.80
2023-04-21T06:07:09.884Z,7.80
2023-04-21T06:08:11.766Z,7.82
2023-04-21T06:09:16.683Z,7.86
2023-04-21T06:10:18.821Z,7.89
2023-04-21T06:11:20.765Z,7.97
2023-04-21T06:12:22.456Z,8.02
2023-04-21T06:13:24.318Z,8.07
2023-04-21T06:14:26.150Z,8.12
2023-04-21T06:15:28.003Z,8.17
2023-04-21T06:16:32.637Z,8.21
2023-04-21T06:17:34.629Z,8.26
2023-04-21T06:18:36.467Z,8.33
2023-04-21T06:19:41.267Z,8.40
2023-04-21T06:20:49.817Z,8.47
2023-04-21T06:21:52.057Z,8.53
2023-04-21T06:22:54.325Z,8.58
2023-04-21T06:23:56.151Z,8.66
2023-04-21T06:24:58.821Z,8.70
2023-04-21T06:26:01.958Z,8.72
2023-04-21T06:27:03.984Z,8.77
2023-04-21T06:28:06.080Z,8.80
2023-04-21T06:29:07.962Z,8.85
2023-04-21T06:30:09.926Z,8.89
2023-04-21T06:31:15.608Z,8.94
2023-04-21T06:32:17.659Z,9.01
2023-04-21T06:33:19.381Z,9.05
2023-04-21T06:34:21.847Z,9.11
2023-04-21T06:35:24.784Z,9.13
2023-04-21T06:36:27.884Z,9.18
2023-04-21T06:37:29.735Z,9.20
2023-04-21T06:38:31.746Z,9.24
2023-04-21T06:39:33.532Z,9.31
2023-04-21T06:40:35.370Z,9.37
2023-04-21T06:41:37.134Z,9.41
2023-04-21T06:42:39.020Z,9.46
2023-04-21T06:43:41.089Z,9.52
2023-04-21T06:44:42.960Z,9.55
2023-04-21T06:45:45.688Z,9.59
2023-04-21T06:46:47.721Z,9.65
2023-04-21T06:47:49.625Z,9.70
2023-04-21T06:48:51.408Z,9.74
2023-04-21T06:49:53.259Z,9.79
2023-04-21T06:50:56.706Z,9.84
2023-04-21T06:51:58.576Z,9.90
2023-04-21T06:53:00.403Z,9.95
2023-04-21T06:54:02.289Z,10.00
2023-04-21T06:55:04.300Z,10.06
2023-04-21T06:56:06.698Z,10.11
2023-04-21T06:57:08.468Z,10.17
2023-04-21T06:58:10.185Z,10.24
2023-04-21T06:59:12.024Z,10.29
2023-04-21T07:00:14.091Z,10.35
2023-04-21T07:01:16.027Z,10.43
2023-04-21T07:02:17.867Z,10.50
2023-04-21T07:03:19.900Z,10.57
2023-04-21T07:04:22.015Z,10.67
2023-04-21T07:05:23.877Z,10.75
2023-04-21T07:06:26.054Z,10.86
2023-04-21T07:07:27.830Z,10.97
2023-04-21T07:08:29.694Z,11.00
2023-04-21T07:09:34.087Z,11.06
2023-04-21T07:10:36.198Z,11.12
2023-04-21T07:11:38.124Z,11.20
2023-04-21T07:12:39.910Z,11.35
2023-04-21T07:13:41.684Z,11.63
2023-04-21T07:14:43.485Z,11.82
2023-04-21T07:15:45.331Z,11.92
2023-04-21T07:16:47.293Z,12.01
2023-04-21T07:17:49.140Z,12.25
2023-04-21T07:18:51.036Z,12.32
2023-04-21T07:19:52.980Z,12.39
2023-04-21T07:20:54.771Z,12.50
2023-04-21T07:21:56.596Z,12.66
2023-04-21T07:22:58.392Z,12.74
2023-04-21T07:24:00.180Z,12.77
2023-04-21T07:25:06.553Z,12.85
2023-04-21T07:26:08.328Z,12.90
2023-04-21T07:27:10.242Z,12.99
2023-04-21T07:28:12.060Z,13.14
2023-04-21T07:29:13.863Z,13.24
2023-04-21T07:30:15.787Z,13.31
2023-04-21T07:31:17.657Z,13.31
2023-04-21T07:32:21.263Z,13.35
2023-04-21T07:33:23.055Z,13.42
2023-04-21T07:34:25.001Z,13.48
2023-04-21T07:35:27.459Z,13.52
2023-04-21T07:36:31.113Z,13.60
2023-04-21T07:37:33.256Z,13.65
2023-04-21T07:38:35.181Z,13.74
2023-04-21T07:39:36.948Z,13.82
2023-04-21T07:40:38.838Z,13.96
2023-04-21T07:41:40.917Z,14.04
2023-04-21T07:42:42.772Z,14.02
2023-04-21T07:43:44.586Z,14.08
2023-04-21T07:44:46.525Z,14.10
2023-04-21T07:45:48.373Z,14.11
2023-04-21T07:46:50.190Z,14.11
2023-04-21T07:47:52.179Z,14.15
2023-04-21T07:48:54.018Z,14.15
2023-04-21T07:49:56.462Z,14.18
2023-04-21T07:51:01.837Z,14.21
2023-04-21T07:52:03.637Z,14.27
2023-04-21T07:53:05.731Z,14.29
2023-04-21T07:54:07.621Z,14.36
2023-04-21T07:55:09.669Z,14.40
2023-04-21T07:56:13.425Z,14.53
2023-04-21T07:57:15.292Z,14.56
2023-04-21T07:58:17.265Z,14.59
2023-04-21T07:59:19.385Z,14.65
2023-04-21T08:00:21.465Z,14.67
2023-04-21T08:01:24.057Z,14.71
2023-04-21T08:02:26.089Z,14.75
2023-04-21T08:03:30.040Z,14.82
2023-04-21T08:04:32.356Z,14.90
2023-04-21T08:05:37.529Z,14.93
2023-04-21T08:06:42.203Z,14.93
2023-04-21T08:07:44.135Z,14.97
2023-04-21T08:08:46.132Z,14.97
2023-04-21T08:09:47.975Z,14.97
2023-04-21T08:10:49.853Z,15.04
2023-04-21T08:11:51.655Z,15.03
2023-04-21T08:12:53.457Z,15.03
2023-04-21T08:13:55.325Z,15.07
2023-04-21T08:14:57.133Z,15.11
2023-04-21T08:15:59.049Z,15.19
2023-04-21T08:17:01.163Z,15.30
2023-04-21T08:18:03.342Z,15.34
2023-04-21T08:19:05.823Z,15.35
2023-04-21T08:20:08.262Z,15.36
2023-04-21T08:21:10.075Z,15.39
2023-04-21T08:22:12.323Z,15.39
2023-04-21T08:23:14.930Z,15.42
2023-04-21T08:24:16.852Z,15.44
2023-04-21T08:25:18.704Z,15.46
2023-04-21T08:26:21.939Z,15.54
2023-04-21T08:27:23.711Z,15.59
2023-04-21T08:28:25.544Z,15.63
2023-04-21T08:29:27.705Z,15.69
2023-04-21T08:30:29.643Z,15.71
2023-04-21T08:31:31.657Z,15.72
2023-04-21T08:32:34.016Z,15.73
2023-04-21T08:33:39.258Z,15.78
2023-04-21T08:34:43.370Z,15.80
2023-04-21T08:35:59.306Z,15.84
2023-04-21T08:37:06.198Z,15.89
2023-04-21T08:38:09.646Z,15.95
2023-04-21T08:39:11.560Z,16.00
2023-04-21T08:40:13.789Z,15.99
2023-04-21T08:41:15.619Z,15.96
2023-04-21T08:42:18.117Z,15.99
2023-04-21T08:43:19.933Z,15.98
2023-04-21T08:44:21.912Z,16.00
2023-04-21T08:45:24.010Z,16.06
2023-04-21T08:46:26.577Z,16.05
2023-04-21T08:47:29.186Z,16.07
2023-04-21T08:48:31.837Z,16.13
2023-04-21T08:49:33.689Z,16.15
2023-04-21T08:50:36.928Z,16.17
2023-04-21T08:51:38.747Z,16.21
2023-04-21T08:52:40.560Z,16.27
2023-04-21T08:53:42.647Z,16.30
2023-04-21T08:54:44.686Z,16.36
2023-04-21T08:55:53.635Z,16.40
2023-04-21T08:57:14.152Z,16.48
2023-04-21T08:58:16.910Z,16.55
2023-04-21T08:59:18.954Z,16.58
2023-04-21T09:00:21.612Z,16.54
2023-04-21T09:01:23.526Z,16.57
2023-04-21T09:02:25.567Z,16.62
2023-04-21T09:03:28.018Z,16.65
2023-04-21T09:04:31.104Z,16.66
2023-04-21T09:05:33.961Z,16.64
2023-04-21T09:06:46.411Z,16.66
2023-04-21T09:07:48.353Z,16.70
2023-04-21T09:08:56.576Z,16.77
2023-04-21T09:09:58.848Z,16.80
2023-04-21T09:11:01.865Z,16.84
2023-04-21T09:12:03.780Z,16.85
2023-04-21T09:13:12.068Z,16.90
2023-04-21T09:14:13.860Z,16.89
2023-04-21T09:15:17.926Z,16.88
2023-04-21T09:16:24.090Z,16.84
2023-04-21T09:17:32.926Z,16.86
2023-04-21T09:18:36.909Z,16.92
2023-04-21T09:19:38.718Z,16.96
2023-04-21T09:20:40.794Z,16.98
2023-04-21T09:21:44.166Z,17.06
2023-04-21T09:22:46.034Z,17.13
2023-04-21T09:23:50.966Z,17.15
2023-04-21T09:25:00.446Z,17.21
2023-04-21T09:26:03.764Z,17.23
2023-04-21T09:27:05.774Z,17.23
2023-04-21T09:28:08.953Z,17.28
2023-04-21T09:29:10.780Z,17.36
2023-04-21T09:30:13.967Z,17.42
2023-04-21T09:31:25.412Z,17.49
2023-04-21T09:32:27.461Z,17.49
2023-04-21T09:33:42.254Z,17.52
2023-04-21T09:34:51.467Z,17.56
2023-04-21T09:35:54.976Z,17.58
2023-04-21T09:37:03.241Z,17.61
2023-04-21T09:38:09.921Z,17.68
2023-04-21T09:40:18.150Z,17.58
2023-04-21T09:41:20.247Z,17.69
2023-04-21T09:42:28.518Z,17.75
2023-04-21T09:43:30.561Z,17.81
2023-04-21T09:44:39.769Z,17.88
2023-04-21T09:45:53.558Z,17.90
2023-04-21T09:47:04.168Z,17.98
2023-04-21T09:48:07.977Z,18.10
2023-04-21T09:49:10.939Z,18.15
2023-04-21T09:50:13.573Z,18.17
2023-04-21T09:51:25.471Z,18.21
2023-04-21T09:52:34.917Z,18.28
2023-04-21T09:53:38.604Z,18.30
2023-04-21T09:54:45.896Z,18.25
2023-04-21T09:55:49.750Z,18.21
2023-04-21T09:56:53.747Z,18.18
2023-04-21T09:58:02.479Z,18.27
2023-04-21T09:59:06.719Z,18.31
2023-04-21T10:00:10.037Z,18.34
2023-04-21T10:01:13.066Z,18.31
2023-04-21T10:02:17.300Z,18.35
2023-04-21T10:03:21.259Z,18.41
2023-04-21T10:04:25.654Z,18.50
2023-04-21T10:05:29.079Z,18.59
2023-04-21T10:06:32.337Z,18.61
2023-04-21T10:07:34.130Z,18.57
2023-04-21T10:08:36.957Z,18.71
2023-04-21T10:09:41.740Z,18.79
2023-04-21T10:10:45.751Z,18.83
2023-04-21T10:11:47.700Z,18.82
2023-04-21T10:12:50.591Z,18.78
2023-04-21T10:13:52.452Z,18.83
2023-04-21T10:14:55.334Z,18.89
2023-04-21T10:16:09.811Z,18.90
2023-04-21T10:17:12.081Z,18.99
2023-04-21T10:18:19.036Z,19.11
2023-04-21T10:19:25.628Z,19.15
2023-04-21T10:20:27.444Z,19.29
2023-04-21T10:21:29.265Z,19.43
2023-04-21T10:22:32.452Z,19.39
2023-04-21T10:23:36.975Z,19.46
2023-04-21T10:24:42.942Z,19.47
2023-04-21T10:25:49.001Z,19.56
2023-04-21T10:26:54.049Z,19.53
2023-04-21T10:27:56.829Z,19.58
2023-04-21T10:29:00.037Z,19.64
2023-04-21T10:30:02.576Z,19.72
2023-04-21T10:31:40.033Z,19.79
2023-04-21T10:32:42.950Z,19.85
2023-04-21T10:34:06.078Z,20.02
2023-04-21T10:35:11.885Z,20.12
2023-04-21T10:36:15.866Z,20.18
2023-04-21T10:37:17.902Z,20.14
2023-04-21T10:38:34.071Z,20.16
2023-04-21T10:39:37.038Z,20.18
2023-04-21T10:41:44.525Z,20.31
2023-04-21T10:42:46.424Z,20.32
2023-04-21T10:43:51.036Z,20.30
2023-04-21T10:44:58.618Z,20.35
2023-04-21T10:46:00.579Z,20.51
2023-04-21T10:47:02.335Z,20.64
2023-04-21T10:48:13.619Z,20.80
2023-04-21T10:49:21.183Z,20.75
2023-04-21T10:50:29.867Z,20.87
2023-04-21T10:51:33.354Z,20.80
2023-04-21T10:52:35.095Z,20.75
2023-04-21T10:53:43.837Z,20.80
2023-04-21T10:54:50.139Z,20.77
2023-04-21T10:55:53.181Z,20.74
2023-04-21T10:56:56.132Z,20.58
2023-04-21T10:57:59.380Z,20.60
2023-04-21T10:59:01.414Z,20.77
2023-04-21T11:00:07.241Z,20.98
2023-04-21T11:01:09.151Z,21.11
2023-04-21T11:02:15.162Z,21.16
2023-04-21T11:03:17.282Z,21.04
2023-04-21T11:04:22.195Z,21.10
2023-04-21T11:05:31.812Z,21.26
2023-04-21T11:06:33.656Z,21.41
2023-04-21T11:07:35.580Z,21.20
2023-04-21T11:08:54.891Z,21.13
2023-04-21T11:09:58.312Z,21.05
2023-04-21T11:11:00.144Z,21.05
2023-04-21T11:12:05.106Z,21.20
2023-04-21T11:13:08.063Z,21.20
2023-04-21T11:14:09.877Z,21.10
2023-04-21T11:15:13.584Z,21.16
2023-04-21T11:16:15.476Z,21.24
2023-04-21T11:17:18.336Z,21.13
2023-04-21T11:18:20.064Z,21.18
2023-04-21T11:19:26.153Z,21.17
2023-04-21T11:20:28.050Z,21.24
2023-04-21T11:21:30.329Z,21.38
2023-04-21T11:22:32.902Z,21.44
2023-04-21T11:23:34.727Z,21.61
2023-04-21T11:24:36.693Z,21.64
2023-04-21T11:25:38.525Z,21.64
2023-04-21T11:26:41.247Z,21.77
2023-04-21T11:27:43.036Z,21.64
2023-04-21T11:28:47.816Z,21.64
2023-04-21T11:29:50.551Z,21.39
2023-04-21T11:30:52.467Z,21.52
2023-04-21T11:31:54.596Z,21.36
2023-04-21T11:32:56.480Z,21.30
2023-04-21T11:34:01.326Z,21.54
2023-04-21T11:35:04.023Z,21.74
2023-04-21T11:36:08.974Z,21.83
2023-04-21T11:37:14.331Z,21.83
2023-04-21T11:38:17.134Z,21.85
2023-04-21T11:39:22.507Z,21.99
2023-04-21T11:40:24.563Z,22.10
2023-04-21T11:41:26.359Z,22.26
2023-04-21T11:42:28.525Z,22.48
2023-04-21T11:43:30.963Z,22.49
2023-04-21T11:44:33.807Z,22.31
2023-04-21T11:45:35.576Z,22.37
2023-04-21T11:46:37.765Z,22.35
2023-04-21T11:47:40.175Z,22.32
2023-04-21T11:48:43.425Z,22.35
2023-04-21T11:49:50.844Z,22.63
2023-04-21T11:50:52.647Z,22.66
2023-04-21T11:51:54.459Z,22.30
2023-04-21T11:52:56.423Z,22.28
2023-04-21T11:53:59.083Z,22.30
2023-04-21T11:55:01.961Z,22.30
2023-04-21T11:56:03.817Z,22.23
2023-04-21T11:57:06.420Z,22.37
2023-04-21T11:58:08.141Z,22.45
2023-04-21T11:59:14.527Z,22.32
2023-04-21T12:00:16.684Z,22.37
2023-04-21T12:01:19.350Z,22.26
2023-04-21T12:02:23.138Z,22.19
2023-04-21T12:03:26.589Z,22.51
2023-04-21T12:04:29.898Z,22.58
2023-04-21T12:05:36.471Z,22.59
2023-04-21T12:06:38.272Z,22.77
2023-04-21T12:07:48.150Z,22.82
2023-04-21T12:08:54.882Z,22.96
2023-04-21T12:09:56.716Z,22.71
2023-04-21T12:10:59.581Z,22.60
2023-04-21T12:12:05.406Z,22.34
2023-04-21T12:13:07.177Z,22.45
2023-04-21T12:14:09.052Z,22.54
2023-04-21T12:15:12.323Z,22.67
2023-04-21T12:16:14.123Z,22.83
2023-04-21T12:17:15.910Z,22.74
2023-04-21T12:18:17.722Z,22.38
2023-04-21T12:19:26.762Z,22.49
2023-04-21T12:20:29.924Z,22.72
2023-04-21T12:21:32.176Z,23.01
2023-04-21T12:22:34.072Z,23.27
2023-04-21T12:23:35.879Z,23.33
2023-04-21T12:24:38.254Z,23.35
2023-04-21T12:25:40.055Z,23.30
2023-04-21T12:26:42.366Z,23.13
2023-04-21T12:27:51.425Z,23.02
2023-04-21T12:28:53.559Z,22.90
2023-04-21T12:29:55.494Z,23.14
2023-04-21T12:30:57.256Z,23.39
2023-04-21T12:31:59.377Z,23.54
2023-04-21T12:33:01.586Z,23.49
2023-04-21T12:34:03.967Z,23.53
2023-04-21T12:35:06.030Z,23.60
2023-04-21T12:36:08.792Z,23.81
2023-04-21T12:37:11.780Z,23.95
2023-04-21T12:38:13.565Z,23.62
2023-04-21T12:39:17.488Z,23.23
2023-04-21T12:40:19.328Z,22.75
2023-04-21T12:41:21.675Z,22.83
2023-04-21T12:42:24.033Z,22.92
2023-04-21T12:43:25.843Z,23.06
2023-04-21T12:44:27.742Z,23.21
2023-04-21T12:45:29.621Z,23.42
2023-04-21T12:46:31.764Z,23.55
2023-04-21T12:47:33.713Z,23.67
2023-04-21T12:48:36.547Z,23.75
2023-04-21T12:49:38.394Z,23.76
2023-04-21T12:50:40.243Z,23.77
2023-04-21T12:51:42.039Z,23.88
2023-04-21T12:52:43.928Z,23.95
2023-04-21T12:53:46.850Z,24.07
2023-04-21T12:54:48.699Z,23.99
2023-04-21T12:56:01.335Z,24.14
2023-04-21T12:57:06.832Z,24.50
2023-04-21T12:58:08.920Z,24.73
2023-04-21T12:59:11.128Z,24.85
2023-04-21T13:00:15.109Z,24.48
2023-04-21T13:01:17.007Z,23.82
2023-04-21T13:02:19.034Z,23.31
2023-04-21T13:03:21.336Z,23.39
2023-04-21T13:04:23.501Z,23.53
2023-04-21T13:05:25.799Z,23.48
2023-04-21T13:06:28.483Z,23.45
2023-04-21T13:07:31.862Z,23.62
2023-04-21T13:08:33.773Z,23.86
2023-04-21T13:09:35.631Z,24.03
2023-04-21T13:10:37.346Z,24.20
2023-04-21T13:11:39.136Z,24.26
2023-04-21T13:12:41.698Z,23.95
2023-04-21T13:13:43.536Z,24.21
2023-04-21T13:14:45.400Z,24.48
2023-04-21T13:15:47.290Z,24.48
2023-04-21T13:16:49.169Z,24.63
2023-04-21T13:17:51.058Z,24.58
2023-04-21T13:18:52.929Z,24.15
2023-04-21T13:19:54.955Z,23.82
2023-04-21T13:20:56.837Z,23.25
2023-04-21T13:21:58.599Z,22.69
2023-04-21T13:23:00.462Z,22.86
2023-04-21T13:24:03.179Z,22.90
2023-04-21T13:25:05.259Z,22.61
2023-04-21T13:26:07.268Z,22.34
2023-04-21T13:27:09.221Z,21.90
2023-04-21T13:28:10.984Z,21.46
2023-04-21T13:29:12.826Z,21.81
2023-04-21T13:30:15.029Z,22.33
2023-04-21T13:31:16.948Z,22.63
2023-04-21T13:32:18.765Z,22.90
2023-04-21T13:33:20.817Z,23.13
2023-04-21T13:34:23.046Z,23.56
2023-04-21T13:35:24.761Z,23.83
2023-04-21T13:36:27.207Z,23.43
2023-04-21T13:37:29.021Z,23.32
2023-04-21T13:38:31.135Z,23.10
2023-04-21T13:39:33.285Z,22.62
2023-04-21T13:40:35.822Z,22.30
2023-04-21T13:41:37.761Z,22.49
2023-04-21T13:42:39.713Z,22.85
2023-04-21T13:43:41.659Z,23.26
2023-04-21T13:44:43.486Z,23.49
2023-04-21T13:45:46.307Z,23.76